DLH1745 DTTA-EDDM
Flight info
| Callsign | DLH1745 |
|---|---|
| Flight time | N/A |
| Altitude | 38000 |
| Route | TOBIB4B TOBIB A725 TANIT UA725 OSMAR DCT TIVUK DCT QUENN DCT VELAD DCT GINAR DCT SOTOV/N0384F240 T101 BETOS BETOS1A |
| Aircraft | A321/M-SDE3FGHIRWY/LB1 |
Departure
| Time | 2026-05-08 07:02 |
|---|---|
| Airport | Tunis Carthage International Airport (DTTA) |
Arrival
| Time | N/A |
|---|---|
| Airport | Munich Airport (EDDM) |
| Time | Latitude | Longitude | Altitude | Speed | Heading |
|---|---|---|---|---|---|
| 2026-05-08 06:35 | 36.84654 | 10.21950 | 26 ft | 0 kts | 198° |
| 2026-05-08 06:52 | 36.84671 | 10.21956 | 31 ft | 4 kts | 183° |
| 2026-05-08 06:52 | 36.84695 | 10.21951 | 30 ft | 4 kts | 140° |
| 2026-05-08 06:52 | 36.84709 | 10.21926 | 31 ft | 4 kts | 107° |
| 2026-05-08 06:53 | 36.84715 | 10.21897 | 31 ft | 1 kts | 102° |
| 2026-05-08 06:53 | 36.84715 | 10.21896 | 30 ft | 0 kts | 102° |
| 2026-05-08 06:55 | 36.84715 | 10.21898 | 31 ft | 1 kts | 99° |
| 2026-05-08 06:55 | 36.84717 | 10.21916 | 31 ft | 3 kts | 84° |
| 2026-05-08 06:55 | 36.84720 | 10.21952 | 31 ft | 5 kts | 83° |
| 2026-05-08 06:56 | 36.84741 | 10.21994 | 27 ft | 7 kts | 33° |
| 2026-05-08 06:56 | 36.84790 | 10.22011 | 28 ft | 8 kts | 10° |
| 2026-05-08 06:56 | 36.84850 | 10.22025 | 26 ft | 9 kts | 19° |
| 2026-05-08 06:56 | 36.84890 | 10.22091 | 26 ft | 11 kts | 82° |
| 2026-05-08 06:57 | 36.84886 | 10.22193 | 30 ft | 13 kts | 95° |
| 2026-05-08 06:57 | 36.84873 | 10.22310 | 26 ft | 14 kts | 86° |
| 2026-05-08 06:57 | 36.84949 | 10.22379 | 26 ft | 15 kts | 12° |
| 2026-05-08 06:57 | 36.85054 | 10.22405 | 27 ft | 16 kts | 12° |
| 2026-05-08 06:58 | 36.85166 | 10.22437 | 28 ft | 17 kts | 13° |
| 2026-05-08 06:58 | 36.85286 | 10.22471 | 28 ft | 19 kts | 12° |
| 2026-05-08 06:58 | 36.85421 | 10.22507 | 27 ft | 21 kts | 12° |
| 2026-05-08 06:58 | 36.85565 | 10.22547 | 27 ft | 22 kts | 12° |
| 2026-05-08 06:59 | 36.85717 | 10.22588 | 27 ft | 23 kts | 12° |
| 2026-05-08 06:59 | 36.85877 | 10.22631 | 28 ft | 24 kts | 12° |
| 2026-05-08 06:59 | 36.86042 | 10.22676 | 28 ft | 25 kts | 12° |
| 2026-05-08 06:59 | 36.86212 | 10.22723 | 29 ft | 26 kts | 13° |
| 2026-05-08 07:00 | 36.86389 | 10.22772 | 29 ft | 26 kts | 12° |
| 2026-05-08 07:00 | 36.86571 | 10.22822 | 30 ft | 27 kts | 12° |
| 2026-05-08 07:00 | 36.86743 | 10.22880 | 30 ft | 23 kts | 34° |
| 2026-05-08 07:00 | 36.86768 | 10.23038 | 30 ft | 17 kts | 116° |
| 2026-05-08 07:01 | 36.86690 | 10.23124 | 30 ft | 15 kts | 170° |
| 2026-05-08 07:01 | 36.86656 | 10.23120 | 29 ft | 0 kts | 190° |
| 2026-05-08 07:01 | 36.86511 | 10.23083 | 29 ft | 59 kts | 192° |
| 2026-05-08 07:01 | 36.85856 | 10.22907 | 27 ft | 131 kts | 192° |
| 2026-05-08 07:02 | 36.84778 | 10.22616 | 110 ft | 178 kts | 192° |
| 2026-05-08 07:02 | 36.83556 | 10.22268 | 771 ft | 183 kts | 195° |
| 2026-05-08 07:02 | 36.82294 | 10.21911 | 1473 ft | 188 kts | 197° |
| 2026-05-08 07:02 | 36.80954 | 10.21534 | 1793 ft | 208 kts | 198° |
| 2026-05-08 07:03 | 36.79459 | 10.21341 | 2232 ft | 227 kts | 174° |
| 2026-05-08 07:03 | 36.78078 | 10.22333 | 2844 ft | 240 kts | 131° |
| 2026-05-08 07:03 | 36.77483 | 10.24253 | 3538 ft | 242 kts | 90° |
| 2026-05-08 07:03 | 36.77962 | 10.26218 | 4198 ft | 239 kts | 49° |
| 2026-05-08 07:04 | 36.79284 | 10.27355 | 4826 ft | 231 kts | 9° |
| 2026-05-08 07:04 | 36.80824 | 10.27190 | 5422 ft | 222 kts | 331° |
| 2026-05-08 07:04 | 36.82134 | 10.26244 | 6074 ft | 221 kts | 321° |
| 2026-05-08 07:04 | 36.83421 | 10.25190 | 6739 ft | 222 kts | 320° |
| 2026-05-08 07:05 | 36.84717 | 10.24126 | 7400 ft | 223 kts | 320° |
| 2026-05-08 07:05 | 36.86088 | 10.23164 | 7960 ft | 233 kts | 327° |
| 2026-05-08 07:05 | 36.87631 | 10.22258 | 8183 ft | 259 kts | 332° |
| 2026-05-08 07:05 | 36.89419 | 10.21533 | 8636 ft | 278 kts | 338° |
| 2026-05-08 07:06 | 36.91327 | 10.20943 | 9352 ft | 285 kts | 340° |
| 2026-05-08 07:06 | 36.93274 | 10.20403 | 10084 ft | 289 kts | 340° |
| 2026-05-08 07:06 | 36.95297 | 10.19842 | 10408 ft | 309 kts | 340° |
| 2026-05-08 07:06 | 36.97463 | 10.19214 | 10591 ft | 330 kts | 340° |
| 2026-05-08 07:07 | 36.99726 | 10.18543 | 11123 ft | 337 kts | 340° |
| 2026-05-08 07:07 | 37.02017 | 10.17853 | 11796 ft | 340 kts | 339° |
| 2026-05-08 07:07 | 37.04323 | 10.17148 | 12507 ft | 342 kts | 339° |
| 2026-05-08 07:07 | 37.06639 | 10.16431 | 13208 ft | 344 kts | 339° |
| 2026-05-08 07:08 | 37.08975 | 10.15705 | 13900 ft | 346 kts | 338° |
| 2026-05-08 07:08 | 37.11323 | 10.14972 | 14496 ft | 349 kts | 338° |
| 2026-05-08 07:08 | 37.13690 | 10.14230 | 15083 ft | 352 kts | 338° |
| 2026-05-08 07:08 | 37.16080 | 10.13481 | 15667 ft | 356 kts | 339° |
| 2026-05-08 07:09 | 37.18492 | 10.12727 | 16248 ft | 359 kts | 339° |
| 2026-05-08 07:09 | 37.20921 | 10.11966 | 16817 ft | 362 kts | 339° |
| 2026-05-08 07:09 | 37.23380 | 10.11195 | 17376 ft | 365 kts | 339° |
| 2026-05-08 07:09 | 37.25861 | 10.10419 | 17934 ft | 368 kts | 339° |
| 2026-05-08 07:10 | 37.28359 | 10.09634 | 18453 ft | 372 kts | 338° |
| 2026-05-08 07:10 | 37.30876 | 10.08844 | 18944 ft | 374 kts | 338° |
| 2026-05-08 07:10 | 37.33410 | 10.08050 | 19452 ft | 376 kts | 338° |
| 2026-05-08 07:10 | 37.35961 | 10.07252 | 19949 ft | 378 kts | 338° |
| 2026-05-08 07:11 | 37.38494 | 10.06458 | 20428 ft | 381 kts | 338° |
| 2026-05-08 07:11 | 37.41103 | 10.05638 | 20913 ft | 383 kts | 338° |
| 2026-05-08 07:11 | 37.43662 | 10.04831 | 21387 ft | 385 kts | 338° |
| 2026-05-08 07:11 | 37.46266 | 10.04007 | 21850 ft | 387 kts | 338° |
| 2026-05-08 07:12 | 37.48888 | 10.03177 | 22313 ft | 390 kts | 338° |
| 2026-05-08 07:12 | 37.51522 | 10.02340 | 22766 ft | 392 kts | 338° |
| 2026-05-08 07:12 | 37.54175 | 10.01496 | 23217 ft | 395 kts | 338° |
| 2026-05-08 07:12 | 37.56853 | 10.00644 | 23644 ft | 397 kts | 338° |
| 2026-05-08 07:13 | 37.59540 | 9.99793 | 24018 ft | 399 kts | 338° |
| 2026-05-08 07:13 | 37.62240 | 9.98937 | 24396 ft | 401 kts | 338° |
| 2026-05-08 07:13 | 37.64958 | 9.98074 | 24777 ft | 403 kts | 338° |
| 2026-05-08 07:13 | 37.67685 | 9.97208 | 25154 ft | 406 kts | 338° |
| 2026-05-08 07:14 | 37.70430 | 9.96338 | 25537 ft | 407 kts | 338° |
| 2026-05-08 07:14 | 37.73184 | 9.95463 | 25913 ft | 409 kts | 338° |
| 2026-05-08 07:14 | 37.75953 | 9.94581 | 26280 ft | 411 kts | 338° |
| 2026-05-08 07:14 | 37.77831 | 9.93981 | 26528 ft | 413 kts | 337° |
| 2026-05-08 07:15 | 37.80588 | 9.93101 | 26885 ft | 415 kts | 338° |
| 2026-05-08 07:15 | 37.83397 | 9.92205 | 27244 ft | 417 kts | 338° |
| 2026-05-08 07:15 | 37.86216 | 9.91307 | 27606 ft | 419 kts | 338° |
| 2026-05-08 07:15 | 37.89048 | 9.90403 | 27969 ft | 420 kts | 337° |
| 2026-05-08 07:16 | 37.91893 | 9.89494 | 28320 ft | 422 kts | 337° |
| 2026-05-08 07:16 | 37.94748 | 9.88579 | 28669 ft | 424 kts | 337° |
| 2026-05-08 07:16 | 37.97623 | 9.87661 | 29011 ft | 426 kts | 337° |
| 2026-05-08 07:16 | 38.00506 | 9.86738 | 29347 ft | 428 kts | 337° |
| 2026-05-08 07:17 | 38.03405 | 9.85810 | 29685 ft | 431 kts | 337° |
| 2026-05-08 07:17 | 38.06314 | 9.84878 | 30008 ft | 432 kts | 337° |
| 2026-05-08 07:17 | 38.09236 | 9.83941 | 30279 ft | 434 kts | 337° |
| 2026-05-08 07:17 | 38.12177 | 9.82998 | 30540 ft | 436 kts | 337° |
| 2026-05-08 07:18 | 38.15126 | 9.82052 | 30795 ft | 437 kts | 337° |
| 2026-05-08 07:18 | 38.18078 | 9.81103 | 31043 ft | 438 kts | 337° |
| 2026-05-08 07:18 | 38.21025 | 9.80154 | 31356 ft | 437 kts | 337° |
| 2026-05-08 07:18 | 38.24027 | 9.79417 | 31700 ft | 444 kts | 345° |
| 2026-05-08 07:19 | 38.27146 | 9.79310 | 32039 ft | 454 kts | 355° |
| 2026-05-08 07:19 | 38.30307 | 9.79879 | 32381 ft | 463 kts | 2° |
| 2026-05-08 07:19 | 38.33468 | 9.80667 | 32731 ft | 461 kts | 2° |
| 2026-05-08 07:19 | 38.36609 | 9.81446 | 33086 ft | 459 kts | 1° |
| 2026-05-08 07:20 | 38.39699 | 9.82204 | 33440 ft | 457 kts | 1° |
| 2026-05-08 07:20 | 38.42817 | 9.82961 | 33795 ft | 455 kts | 1° |
| 2026-05-08 07:20 | 38.45927 | 9.83712 | 34124 ft | 453 kts | 1° |
| 2026-05-08 07:20 | 38.49020 | 9.84466 | 34413 ft | 452 kts | 1° |
| 2026-05-08 07:21 | 38.52112 | 9.85224 | 34682 ft | 452 kts | 1° |
| 2026-05-08 07:21 | 38.55204 | 9.85983 | 34940 ft | 451 kts | 1° |
| 2026-05-08 07:21 | 38.58285 | 9.86737 | 35198 ft | 451 kts | 1° |
| 2026-05-08 07:21 | 38.61364 | 9.87492 | 35448 ft | 450 kts | 1° |
| 2026-05-08 07:22 | 38.64443 | 9.88252 | 35705 ft | 450 kts | 1° |
| 2026-05-08 07:22 | 38.67515 | 9.89015 | 35963 ft | 450 kts | 1° |
| 2026-05-08 07:22 | 38.70585 | 9.89776 | 36218 ft | 449 kts | 1° |
| 2026-05-08 07:22 | 38.73650 | 9.90535 | 36456 ft | 449 kts | 2° |
| 2026-05-08 07:23 | 38.76722 | 9.91293 | 36692 ft | 448 kts | 2° |
| 2026-05-08 07:23 | 38.79781 | 9.92046 | 36916 ft | 448 kts | 2° |
| 2026-05-08 07:23 | 38.82847 | 9.92801 | 37137 ft | 448 kts | 2° |
| 2026-05-08 07:23 | 38.85897 | 9.93741 | 37345 ft | 456 kts | 9° |
| 2026-05-08 07:24 | 38.88902 | 9.95096 | 37534 ft | 458 kts | 11° |
| 2026-05-08 07:24 | 38.91861 | 9.96451 | 37732 ft | 458 kts | 11° |
| 2026-05-08 07:24 | 38.94859 | 9.97824 | 37929 ft | 457 kts | 11° |
| 2026-05-08 07:24 | 38.97858 | 9.99197 | 37995 ft | 457 kts | 11° |
| 2026-05-08 07:25 | 39.03848 | 10.01930 | 37986 ft | 456 kts | 11° |
| 2026-05-08 07:26 | 39.12823 | 10.06031 | 37993 ft | 456 kts | 11° |
| 2026-05-08 07:26 | 39.18801 | 10.08774 | 37992 ft | 456 kts | 11° |
| 2026-05-08 07:27 | 39.24775 | 10.11527 | 38000 ft | 456 kts | 11° |
| 2026-05-08 07:27 | 39.30756 | 10.14284 | 38013 ft | 456 kts | 11° |
| 2026-05-08 07:28 | 39.36743 | 10.17042 | 38018 ft | 457 kts | 11° |
| 2026-05-08 07:28 | 39.42735 | 10.19815 | 38021 ft | 458 kts | 11° |
| 2026-05-08 07:29 | 39.48731 | 10.22605 | 38022 ft | 458 kts | 11° |
| 2026-05-08 07:29 | 39.54730 | 10.25389 | 38025 ft | 458 kts | 11° |
| 2026-05-08 07:30 | 39.60691 | 10.28154 | 38022 ft | 458 kts | 11° |
| 2026-05-08 07:30 | 39.66686 | 10.30949 | 38017 ft | 458 kts | 11° |
| 2026-05-08 07:31 | 39.72684 | 10.33751 | 38015 ft | 458 kts | 11° |
| 2026-05-08 07:31 | 39.78690 | 10.36557 | 38020 ft | 458 kts | 11° |
| 2026-05-08 07:32 | 39.84698 | 10.39363 | 38023 ft | 459 kts | 11° |
| 2026-05-08 07:32 | 39.90706 | 10.42188 | 38021 ft | 459 kts | 11° |
| 2026-05-08 07:33 | 39.96723 | 10.45023 | 38023 ft | 460 kts | 11° |
| 2026-05-08 07:33 | 40.02743 | 10.47861 | 38023 ft | 460 kts | 11° |
| 2026-05-08 07:34 | 40.08766 | 10.50698 | 38017 ft | 460 kts | 12° |
| 2026-05-08 07:34 | 40.14807 | 10.53529 | 38019 ft | 458 kts | 8° |
| 2026-05-08 07:35 | 40.20948 | 10.54879 | 38019 ft | 443 kts | 356° |
| 2026-05-08 07:35 | 40.27102 | 10.55566 | 38016 ft | 444 kts | 356° |
| 2026-05-08 07:36 | 40.33219 | 10.56257 | 38010 ft | 445 kts | 357° |
| 2026-05-08 07:36 | 40.39395 | 10.56964 | 38012 ft | 445 kts | 357° |
| 2026-05-08 07:37 | 40.45570 | 10.57668 | 38012 ft | 445 kts | 357° |
| 2026-05-08 07:37 | 40.51748 | 10.58375 | 38016 ft | 446 kts | 357° |
| 2026-05-08 07:38 | 40.57938 | 10.59087 | 38015 ft | 446 kts | 357° |
| 2026-05-08 07:38 | 40.64131 | 10.59797 | 38012 ft | 447 kts | 358° |
| 2026-05-08 07:39 | 40.70335 | 10.60512 | 38011 ft | 448 kts | 358° |
| 2026-05-08 07:39 | 40.76554 | 10.61231 | 38017 ft | 448 kts | 358° |
| 2026-05-08 07:40 | 40.82775 | 10.61950 | 38011 ft | 449 kts | 358° |
| 2026-05-08 07:40 | 40.89007 | 10.62663 | 38008 ft | 450 kts | 358° |
| 2026-05-08 07:41 | 40.95208 | 10.63373 | 38011 ft | 450 kts | 358° |
| 2026-05-08 07:41 | 41.01465 | 10.64106 | 38012 ft | 451 kts | 358° |
| 2026-05-08 07:42 | 41.07731 | 10.64835 | 38015 ft | 452 kts | 359° |
| 2026-05-08 07:42 | 41.14012 | 10.65571 | 38001 ft | 453 kts | 359° |
| 2026-05-08 07:43 | 41.20294 | 10.66303 | 38010 ft | 454 kts | 359° |
| 2026-05-08 07:43 | 41.26544 | 10.67027 | 38006 ft | 454 kts | 359° |
| 2026-05-08 07:44 | 41.32852 | 10.67769 | 38002 ft | 455 kts | 359° |
| 2026-05-08 07:44 | 41.39168 | 10.68515 | 38006 ft | 456 kts | 359° |
| 2026-05-08 07:45 | 41.45500 | 10.69266 | 38003 ft | 457 kts | 359° |
| 2026-05-08 07:45 | 41.51833 | 10.70018 | 38004 ft | 457 kts | 360° |
| 2026-05-08 07:46 | 41.58190 | 10.70766 | 38000 ft | 458 kts | 360° |
| 2026-05-08 07:46 | 41.64505 | 10.71506 | 37997 ft | 459 kts | 360° |
| 2026-05-08 07:47 | 41.70867 | 10.72253 | 38000 ft | 459 kts | 0° |
| 2026-05-08 07:47 | 41.77246 | 10.73012 | 37996 ft | 460 kts | 0° |
| 2026-05-08 07:48 | 41.83631 | 10.73780 | 37994 ft | 461 kts | 0° |
| 2026-05-08 07:48 | 41.90022 | 10.74545 | 37995 ft | 461 kts | 0° |
| 2026-05-08 07:49 | 41.96418 | 10.75314 | 37993 ft | 462 kts | 0° |
| 2026-05-08 07:49 | 42.02820 | 10.76080 | 37996 ft | 462 kts | 0° |
| 2026-05-08 07:50 | 42.09233 | 10.76689 | 37997 ft | 461 kts | 358° |
| 2026-05-08 07:50 | 42.15635 | 10.76852 | 37997 ft | 460 kts | 355° |
| 2026-05-08 07:51 | 42.22050 | 10.76918 | 37994 ft | 461 kts | 356° |
| 2026-05-08 07:51 | 42.28463 | 10.77081 | 37999 ft | 462 kts | 357° |
| 2026-05-08 07:52 | 42.34892 | 10.77310 | 37992 ft | 462 kts | 357° |
| 2026-05-08 07:52 | 42.41327 | 10.77546 | 37994 ft | 463 kts | 357° |
| 2026-05-08 07:53 | 42.47767 | 10.77757 | 37989 ft | 463 kts | 357° |
| 2026-05-08 07:53 | 42.54208 | 10.77969 | 37984 ft | 463 kts | 357° |
| 2026-05-08 07:54 | 42.60653 | 10.78175 | 37978 ft | 464 kts | 357° |
| 2026-05-08 07:54 | 42.67067 | 10.78383 | 37971 ft | 464 kts | 357° |
| 2026-05-08 07:55 | 42.73526 | 10.78591 | 37969 ft | 464 kts | 357° |
| 2026-05-08 07:55 | 42.79982 | 10.78805 | 37968 ft | 464 kts | 357° |
| 2026-05-08 07:56 | 42.86452 | 10.79021 | 37959 ft | 465 kts | 357° |
| 2026-05-08 07:56 | 42.92919 | 10.79237 | 37981 ft | 465 kts | 357° |
| 2026-05-08 07:57 | 42.99391 | 10.79450 | 37984 ft | 465 kts | 357° |
| 2026-05-08 07:57 | 43.05861 | 10.79671 | 37998 ft | 465 kts | 357° |
| 2026-05-08 07:58 | 43.12336 | 10.79890 | 38000 ft | 465 kts | 357° |
| 2026-05-08 07:58 | 43.18816 | 10.80103 | 38005 ft | 466 kts | 357° |
| 2026-05-08 07:59 | 43.25296 | 10.80319 | 38007 ft | 466 kts | 357° |
| 2026-05-08 07:59 | 43.31741 | 10.80539 | 38010 ft | 466 kts | 357° |
| 2026-05-08 08:00 | 43.38225 | 10.80760 | 38012 ft | 466 kts | 357° |
| 2026-05-08 08:00 | 43.44704 | 10.80976 | 38005 ft | 466 kts | 357° |
| 2026-05-08 08:01 | 43.50139 | 10.81157 | 38007 ft | 466 kts | 357° |
| 2026-05-08 08:01 | 43.56624 | 10.81382 | 38013 ft | 466 kts | 358° |
| 2026-05-08 08:02 | 43.63112 | 10.81610 | 38008 ft | 466 kts | 358° |
| 2026-05-08 08:02 | 43.69563 | 10.82126 | 38016 ft | 468 kts | 1° |
| 2026-05-08 08:03 | 43.76054 | 10.82966 | 38017 ft | 469 kts | 2° |
| 2026-05-08 08:03 | 43.82553 | 10.83808 | 38022 ft | 469 kts | 1° |
| 2026-05-08 08:04 | 43.89060 | 10.84554 | 38024 ft | 469 kts | 1° |
| 2026-05-08 08:04 | 43.95561 | 10.85268 | 38029 ft | 469 kts | 1° |
| 2026-05-08 08:05 | 44.02066 | 10.85990 | 38041 ft | 469 kts | 1° |
| 2026-05-08 08:05 | 44.08573 | 10.86733 | 38057 ft | 469 kts | 1° |
| 2026-05-08 08:06 | 44.15080 | 10.87481 | 38066 ft | 469 kts | 1° |
| 2026-05-08 08:06 | 44.21587 | 10.88237 | 38078 ft | 470 kts | 1° |
| 2026-05-08 08:07 | 44.28102 | 10.88983 | 38085 ft | 470 kts | 1° |
| 2026-05-08 08:07 | 44.34629 | 10.89724 | 38095 ft | 470 kts | 1° |
| 2026-05-08 08:08 | 44.41145 | 10.90475 | 38103 ft | 470 kts | 1° |
| 2026-05-08 08:08 | 44.47617 | 10.91231 | 38106 ft | 470 kts | 1° |
| 2026-05-08 08:09 | 44.54134 | 10.91988 | 38109 ft | 470 kts | 1° |
| 2026-05-08 08:09 | 44.60648 | 10.92736 | 38110 ft | 469 kts | 1° |
| 2026-05-08 08:10 | 44.67157 | 10.93486 | 38111 ft | 469 kts | 1° |
| 2026-05-08 08:10 | 44.73669 | 10.94254 | 38110 ft | 469 kts | 1° |
| 2026-05-08 08:11 | 44.80176 | 10.95013 | 38111 ft | 469 kts | 1° |
| 2026-05-08 08:11 | 44.86685 | 10.95771 | 38103 ft | 469 kts | 1° |
| 2026-05-08 08:12 | 44.93188 | 10.96533 | 38094 ft | 469 kts | 1° |
| 2026-05-08 08:12 | 44.99691 | 10.97311 | 38089 ft | 468 kts | 1° |
| 2026-05-08 08:13 | 45.06187 | 10.98071 | 38084 ft | 469 kts | 1° |
| 2026-05-08 08:13 | 45.12640 | 10.98827 | 38080 ft | 469 kts | 1° |
| 2026-05-08 08:14 | 45.19147 | 10.99602 | 38082 ft | 469 kts | 1° |
| 2026-05-08 08:14 | 45.25653 | 11.00374 | 38087 ft | 469 kts | 1° |
| 2026-05-08 08:15 | 45.32160 | 11.01144 | 38113 ft | 469 kts | 1° |
| 2026-05-08 08:15 | 45.38668 | 11.01922 | 38113 ft | 469 kts | 1° |
| 2026-05-08 08:16 | 45.45181 | 11.02705 | 38114 ft | 469 kts | 1° |
| 2026-05-08 08:16 | 45.51681 | 11.03492 | 38112 ft | 469 kts | 1° |
| 2026-05-08 08:17 | 45.58180 | 11.04272 | 38106 ft | 469 kts | 1° |
| 2026-05-08 08:17 | 45.64680 | 11.05052 | 38105 ft | 468 kts | 1° |
| 2026-05-08 08:18 | 45.71169 | 11.05834 | 38104 ft | 468 kts | 1° |
| 2026-05-08 08:18 | 45.77617 | 11.06617 | 38109 ft | 468 kts | 1° |
| 2026-05-08 08:19 | 45.84111 | 11.07398 | 38116 ft | 468 kts | 1° |